Time;durP1;ratioP1;P1;durP2;ratioP2;P2;SDS_P1;SDS_P2;PMS_P1;PMS_P2;Temp;Humidity;BMP_temperature;BMP_pressure;BME280_temperature;BME280_humidity;BME280_pressure;Samples;Min_cycle;Max_cycle;Signal;HPM_P1;HPM_P2
2023/08/20 00:01:26;;;;;;;15.65;5.38;;;22.80;99.90;;;;;;5051565;28;20311;-60
2023/08/20 00:03:55;;;;;;;9.82;4.80;;;22.80;99.90;;;;;;5051886;28;20205;-60
2023/08/20 00:06:23;;;;;;;10.10;5.20;;;22.80;99.90;;;;;;5051552;28;20209;-60
2023/08/20 00:08:51;;;;;;;11.68;5.72;;;22.80;99.90;;;;;;5051892;28;20240;-60
2023/08/20 00:11:19;;;;;;;14.35;5.80;;;22.80;99.90;;;;;;5051586;28;20205;-60
2023/08/20 00:13:47;;;;;;;13.73;5.85;;;22.80;99.90;;;;;;5051586;28;20569;-60
2023/08/20 00:16:17;;;;;;;9.13;5.28;;;22.80;99.90;;;;;;5051347;28;20262;-60
2023/08/20 00:18:45;;;;;;;16.50;5.63;;;22.70;99.90;;;;;;5057456;28;20269;-59
2023/08/20 00:21:15;;;;;;;7.28;4.97;;;22.70;99.90;;;;;;5063955;28;20736;-60
2023/08/20 00:23:43;;;;;;;9.25;5.53;;;22.70;99.90;;;;;;5051560;28;20205;-60
2023/08/20 00:26:12;;;;;;;15.07;4.88;;;22.70;99.90;;;;;;5051266;28;20209;-59
2023/08/20 00:28:40;;;;;;;7.40;4.95;;;22.60;99.90;;;;;;5051698;28;20213;-60
2023/08/20 00:31:07;;;;;;;12.73;6.00;;;22.60;99.90;;;;;;5051200;28;20201;-60
2023/08/20 00:33:37;;;;;;;6.80;5.28;;;22.60;99.90;;;;;;5051471;28;20216;-59
2023/08/20 00:36:05;;;;;;;11.80;5.80;;;22.50;99.90;;;;;;5054911;28;20205;-59
2023/08/20 00:38:33;;;;;;;11.95;5.70;;;22.50;99.90;;;;;;5055608;28;20244;-60
2023/08/20 00:41:01;;;;;;;13.65;5.32;;;22.50;99.90;;;;;;5055180;28;20217;-60
2023/08/20 00:43:29;;;;;;;10.02;5.03;;;22.50;99.90;;;;;;5055731;28;20233;-60
2023/08/20 00:45:59;;;;;;;6.28;4.90;;;22.50;99.90;;;;;;5055025;28;20228;-60
2023/08/20 00:48:27;;;;;;;10.98;5.53;;;22.50;99.90;;;;;;5055539;28;20247;-59
2023/08/20 00:50:56;;;;;;;12.23;5.82;;;22.40;99.90;;;;;;5055445;28;20292;-59
2023/08/20 00:53:24;;;;;;;8.45;5.35;;;22.40;99.90;;;;;;5055065;28;20263;-60
2023/08/20 00:55:55;;;;;;;12.05;5.53;;;22.40;99.90;;;;;;5055129;28;20257;-60
2023/08/20 00:58:24;;;;;;;12.15;5.18;;;22.40;99.90;;;;;;5055286;28;20209;-60
2023/08/20 01:00:52;;;;;;;14.25;5.32;;;22.30;99.90;;;;;;5055029;28;20563;-60
2023/08/20 01:03:20;;;;;;;8.20;5.65;;;22.30;99.90;;;;;;5055059;28;20251;-59
2023/08/20 01:05:51;;;;;;;9.23;5.72;;;22.30;99.90;;;;;;5054672;28;20298;-60
2023/08/20 01:08:27;;;;;;;8.80;5.97;;;22.20;99.90;;;;;;5055022;28;20216;-60
2023/08/20 01:10:58;;;;;;;12.65;5.78;;;22.10;99.90;;;;;;5055306;28;20205;-59
2023/08/20 01:13:26;;;;;;;9.88;5.05;;;22.10;99.90;;;;;;5055003;28;20212;-60
2023/08/20 01:15:54;;;;;;;11.73;5.80;;;22.00;99.90;;;;;;5054670;28;20318;-60
2023/08/20 01:18:22;;;;;;;19.30;5.68;;;22.00;99.90;;;;;;5054433;28;20259;-60
2023/08/20 01:20:53;;;;;;;11.43;5.38;;;22.00;99.90;;;;;;5059006;28;20683;-60
2023/08/20 01:24:07;;;;;;;7.15;5.82;;;21.90;99.90;;;;;;5074747;28;20204;-59
2023/08/20 01:26:57;;;;;;;10.07;5.78;;;22.00;99.90;;;;;;5038102;28;20211;-59
2023/08/20 01:29:27;;;;;;;9.30;5.28;;;21.90;99.90;;;;;;5074969;28;20215;-60
2023/08/20 01:31:55;;;;;;;6.72;5.50;;;21.90;99.90;;;;;;5074488;28;20270;-59
2023/08/20 01:34:23;;;;;;;9.82;5.88;;;21.80;99.90;;;;;;5074408;28;20266;-60
2023/08/20 01:36:51;;;;;;;10.68;6.00;;;21.80;99.90;;;;;;5074027;28;20247;-60
2023/08/20 01:39:19;;;;;;;11.40;6.13;;;21.70;99.90;;;;;;5074449;28;20204;-59
2023/08/20 01:41:47;;;;;;;10.82;5.93;;;21.70;99.90;;;;;;5074400;28;20251;-60
2023/08/20 01:44:15;;;;;;;14.77;5.85;;;21.60;99.90;;;;;;5074437;28;20259;-60
2023/08/20 01:46:44;;;;;;;12.93;5.85;;;21.60;99.90;;;;;;5073070;28;20208;-59
2023/08/20 01:49:12;;;;;;;9.02;6.00;;;21.50;99.90;;;;;;5074472;28;20651;-59
2023/08/20 01:51:41;;;;;;;16.25;6.30;;;21.50;99.90;;;;;;5074124;28;20200;-59
2023/08/20 01:54:08;;;;;;;12.10;5.97;;;21.50;99.90;;;;;;5073412;28;20268;-59
2023/08/20 01:56:36;;;;;;;6.57;5.72;;;21.50;99.90;;;;;;5074107;28;20639;-60
2023/08/20 01:59:04;;;;;;;9.55;6.05;;;21.50;99.90;;;;;;5074172;28;20244;-60
2023/08/20 02:01:32;;;;;;;12.13;5.32;;;21.50;99.90;;;;;;5074142;28;20267;-60
2023/08/20 02:04:02;;;;;;;9.32;6.20;;;21.40;99.90;;;;;;5073588;28;20293;-60
2023/08/20 02:06:29;;;;;;;11.13;5.68;;;21.40;99.90;;;;;;5073403;28;20248;-60
2023/08/20 02:08:57;;;;;;;20.50;6.20;;;21.40;99.90;;;;;;5074287;28;20287;-60
2023/08/20 02:11:25;;;;;;;11.50;5.85;;;21.40;99.90;;;;;;5073986;28;20254;-59
2023/08/20 02:13:53;;;;;;;9.95;5.57;;;21.40;99.90;;;;;;5073314;28;20733;-59
2023/08/20 02:16:21;;;;;;;14.57;5.75;;;21.30;99.90;;;;;;5073542;28;20673;-59
2023/08/20 02:18:49;;;;;;;16.65;6.03;;;21.30;99.90;;;;;;5073591;28;20263;-60
2023/08/20 02:21:18;;;;;;;10.40;5.72;;;21.30;99.90;;;;;;5065719;28;20637;-59
2023/08/20 02:23:46;;;;;;;12.27;5.82;;;21.20;99.90;;;;;;5053916;28;20233;-60
2023/08/20 02:26:14;;;;;;;10.98;5.68;;;21.30;99.90;;;;;;5053555;28;20232;-59
2023/08/20 02:28:42;;;;;;;8.93;5.90;;;21.20;99.90;;;;;;5053723;28;20209;-60
2023/08/20 02:31:10;;;;;;;10.38;5.80;;;21.20;99.90;;;;;;5053611;28;20252;-59
2023/08/20 02:33:38;;;;;;;10.23;5.68;;;21.20;99.90;;;;;;5053475;28;20209;-60
2023/08/20 02:36:06;;;;;;;12.50;6.07;;;21.20;99.90;;;;;;5053311;28;20212;-59
2023/08/20 02:38:36;;;;;;;11.35;5.72;;;21.20;99.90;;;;;;5053519;28;20201;-59
2023/08/20 02:41:04;;;;;;;9.32;5.60;;;21.20;99.90;;;;;;5053018;28;20217;-60
2023/08/20 02:43:32;;;;;;;7.10;5.05;;;21.20;99.90;;;;;;5052902;28;20256;-60
2023/08/20 02:45:59;;;;;;;14.30;6.10;;;21.10;99.90;;;;;;5052875;28;20283;-60
2023/08/20 02:48:28;;;;;;;10.45;6.07;;;21.10;99.90;;;;;;5052887;28;20335;-60
2023/08/20 02:50:56;;;;;;;9.63;6.10;;;21.10;99.90;;;;;;5053412;28;20629;-59
2023/08/20 02:53:24;;;;;;;9.98;5.55;;;21.00;99.90;;;;;;5052628;28;20209;-59
2023/08/20 02:55:54;;;;;;;9.32;5.70;;;21.00;99.90;;;;;;5053124;28;20264;-60
2023/08/20 02:58:22;;;;;;;14.38;5.82;;;21.00;99.90;;;;;;5052566;28;20206;-59
2023/08/20 03:00:49;;;;;;;6.13;5.50;;;20.90;99.90;;;;;;5052835;28;20362;-60
2023/08/20 03:03:17;;;;;;;12.88;6.03;;;20.90;99.90;;;;;;5052938;28;20209;-60
2023/08/20 03:05:45;;;;;;;7.38;6.20;;;20.90;99.90;;;;;;5052470;28;20656;-59
2023/08/20 03:08:13;;;;;;;10.20;5.75;;;20.90;99.90;;;;;;5052864;28;20233;-59
2023/08/20 03:10:41;;;;;;;14.10;6.05;;;20.90;99.90;;;;;;5052888;28;20293;-60
2023/08/20 03:13:11;;;;;;;16.02;6.20;;;20.90;99.90;;;;;;5052678;28;20209;-59
2023/08/20 03:15:39;;;;;;;8.57;5.90;;;20.90;99.90;;;;;;5052590;28;20608;-60
2023/08/20 03:18:07;;;;;;;14.98;6.32;;;20.80;99.90;;;;;;5052623;28;20239;-60
2023/08/20 03:20:35;;;;;;;21.55;5.95;;;20.80;99.90;;;;;;5054987;28;20244;-59
2023/08/20 03:23:03;;;;;;;10.63;5.90;;;20.80;99.90;;;;;;5072511;28;20316;-60
2023/08/20 03:25:31;;;;;;;9.35;5.78;;;20.80;99.90;;;;;;5072092;28;20224;-60
2023/08/20 03:27:59;;;;;;;11.98;5.18;;;20.80;99.90;;;;;;5072196;28;20212;-60
2023/08/20 03:30:28;;;;;;;7.90;5.85;;;20.80;99.90;;;;;;5072591;28;20299;-60
2023/08/20 03:32:56;;;;;;;12.93;6.03;;;20.80;99.90;;;;;;5072386;28;20250;-60
2023/08/20 03:35:24;;;;;;;10.93;6.03;;;20.80;99.90;;;;;;5072067;28;20228;-60
2023/08/20 03:37:52;;;;;;;12.93;6.13;;;20.80;99.90;;;;;;5072405;28;20370;-60
2023/08/20 03:40:20;;;;;;;10.98;6.35;;;20.70;99.90;;;;;;5072588;28;20261;-59
2023/08/20 03:42:48;;;;;;;9.90;6.03;;;20.70;99.90;;;;;;5072224;28;20239;-59
2023/08/20 03:45:16;;;;;;;9.25;6.13;;;20.70;99.90;;;;;;5071511;28;20260;-59
2023/08/20 03:47:46;;;;;;;10.60;5.97;;;20.60;99.90;;;;;;5067733;28;20276;-58
2023/08/20 03:50:15;;;;;;;9.02;6.22;;;20.60;99.90;;;;;;5068547;28;20215;-60
2023/08/20 03:52:43;;;;;;;10.93;5.82;;;20.60;99.90;;;;;;5064428;28;20196;-59
2023/08/20 03:55:11;;;;;;;13.18;6.63;;;20.60;99.90;;;;;;5071921;28;20315;-59
2023/08/20 03:57:38;;;;;;;11.77;6.05;;;20.60;99.90;;;;;;5072199;28;20304;-60
2023/08/20 04:00:09;;;;;;;13.75;6.70;;;20.60;99.90;;;;;;5071887;28;20205;-59
2023/08/20 04:02:38;;;;;;;14.85;7.07;;;20.60;99.90;;;;;;5063402;28;20255;-59
2023/08/20 04:05:08;;;;;;;11.85;6.10;;;20.60;99.90;;;;;;5071786;28;20608;-60
2023/08/20 04:07:36;;;;;;;11.23;6.30;;;20.60;99.90;;;;;;5071906;28;20211;-60
2023/08/20 04:10:05;;;;;;;13.43;5.90;;;20.60;99.90;;;;;;5071417;28;20278;-59
2023/08/20 04:12:33;;;;;;;11.73;6.05;;;20.60;99.90;;;;;;5071883;28;20203;-56
2023/08/20 04:15:01;;;;;;;12.57;6.18;;;20.60;99.90;;;;;;5071496;28;20625;-57
2023/08/20 04:17:29;;;;;;;12.52;6.32;;;20.60;99.90;;;;;;5063231;28;20680;-57
2023/08/20 04:19:57;;;;;;;10.98;5.90;;;20.60;99.90;;;;;;5071550;28;20640;-57
2023/08/20 04:22:28;;;;;;;15.75;5.75;;;20.60;99.90;;;;;;5054194;28;20253;-58
2023/08/20 04:24:56;;;;;;;8.57;6.45;;;20.60;99.90;;;;;;5051633;28;20236;-57
2023/08/20 04:27:24;;;;;;;13.63;6.47;;;20.60;99.90;;;;;;5051641;28;20209;-55
2023/08/20 04:29:52;;;;;;;10.45;6.00;;;20.60;99.90;;;;;;5051859;28;20244;-57
2023/08/20 04:32:20;;;;;;;9.25;6.25;;;20.60;99.90;;;;;;5051366;28;20205;-56
2023/08/20 04:34:51;;;;;;;11.20;5.65;;;20.60;99.90;;;;;;5053236;28;20225;-57
2023/08/20 04:37:19;;;;;;;16.00;5.97;;;20.60;99.90;;;;;;5059479;28;20730;-57
2023/08/20 04:39:49;;;;;;;14.07;6.82;;;20.60;99.90;;;;;;5051626;28;20209;-56
2023/08/20 04:42:17;;;;;;;10.63;6.03;;;20.70;99.90;;;;;;5051258;28;20657;-57
2023/08/20 04:44:45;;;;;;;10.45;5.93;;;20.70;99.90;;;;;;5051075;28;20229;-57
2023/08/20 04:47:13;;;;;;;9.23;5.82;;;20.70;99.90;;;;;;5051208;28;20209;-56
2023/08/20 04:49:41;;;;;;;9.70;5.93;;;20.70;99.90;;;;;;5051494;28;20268;-57
2023/08/20 04:52:08;;;;;;;9.30;5.47;;;20.70;99.90;;;;;;5051106;28;20232;-58
2023/08/20 04:54:37;;;;;;;10.05;5.40;;;20.70;99.90;;;;;;5051056;28;20225;-58
2023/08/20 04:57:06;;;;;;;11.02;5.85;;;20.70;99.90;;;;;;5050967;28;20224;-57
2023/08/20 04:59:34;;;;;;;13.52;5.85;;;20.70;99.90;;;;;;5051574;28;20213;-58
2023/08/20 05:02:02;;;;;;;8.07;5.82;;;20.70;99.90;;;;;;5051141;28;20646;-58
2023/08/20 05:04:30;;;;;;;9.35;5.70;;;20.70;99.90;;;;;;5050995;28;20384;-57
2023/08/20 05:06:57;;;;;;;8.10;5.53;;;20.70;99.90;;;;;;5050794;28;20241;-57
2023/08/20 05:09:25;;;;;;;9.05;5.78;;;20.70;99.90;;;;;;5051188;28;20237;-57
2023/08/20 05:11:53;;;;;;;14.65;6.05;;;20.80;99.90;;;;;;5050701;28;20241;-58
2023/08/20 05:14:22;;;;;;;13.13;6.57;;;20.80;99.90;;;;;;5051007;28;20221;-57
2023/08/20 05:16:50;;;;;;;9.82;6.47;;;20.80;99.90;;;;;;5050643;28;20236;-57
2023/08/20 05:19:18;;;;;;;9.23;6.28;;;20.80;99.90;;;;;;5051084;28;20213;-57
2023/08/20 05:21:46;;;;;;;12.93;6.13;;;20.80;99.90;;;;;;5065781;28;20287;-57
2023/08/20 05:24:14;;;;;;;10.80;6.13;;;20.90;99.90;;;;;;5074460;28;20256;-57
2023/08/20 05:26:42;;;;;;;13.35;6.68;;;20.90;99.90;;;;;;5073925;28;20209;-58
2023/08/20 05:29:10;;;;;;;7.18;6.03;;;21.00;99.90;;;;;;5074413;28;20236;-57
2023/08/20 05:31:39;;;;;;;8.85;5.95;;;21.00;99.90;;;;;;5074671;28;20244;-58
2023/08/20 05:34:07;;;;;;;11.23;6.03;;;21.00;99.90;;;;;;5074074;28;20727;-58
2023/08/20 05:36:35;;;;;;;11.50;5.82;;;21.10;99.90;;;;;;5074259;28;20818;-57
2023/08/20 05:39:03;;;;;;;10.73;6.13;;;21.20;99.90;;;;;;5074145;28;20216;-58
2023/08/20 05:41:31;;;;;;;15.07;6.50;;;21.20;99.90;;;;;;5074534;28;20231;-60
2023/08/20 05:43:59;;;;;;;10.85;6.72;;;21.20;99.90;;;;;;5074130;28;20255;-60
2023/08/20 05:46:27;;;;;;;9.93;6.95;;;21.20;99.90;;;;;;5074079;28;20722;-60
2023/08/20 05:48:56;;;;;;;14.18;7.15;;;21.30;99.90;;;;;;5074132;28;20204;-60
2023/08/20 05:51:24;;;;;;;10.40;6.68;;;21.30;99.90;;;;;;5074007;28;20296;-60
2023/08/20 05:53:52;;;;;;;8.48;5.90;;;21.40;99.90;;;;;;5074123;28;20279;-60
2023/08/20 05:56:20;;;;;;;11.75;6.30;;;21.50;99.90;;;;;;5073704;28;20731;-60
2023/08/20 05:58:48;;;;;;;11.30;7.07;;;21.50;99.90;;;;;;5071882;28;20243;-59
2023/08/20 06:01:16;;;;;;;9.52;6.47;;;21.60;99.90;;;;;;5065085;28;20225;-62
2023/08/20 06:03:44;;;;;;;6.75;6.05;;;21.60;99.90;;;;;;5052152;28;20233;-62
2023/08/20 06:06:13;;;;;;;8.15;6.00;;;21.70;99.90;;;;;;5052850;28;20318;-62
2023/08/20 06:08:41;;;;;;;7.85;6.22;;;21.70;99.90;;;;;;5053554;28;20212;-62
2023/08/20 06:11:25;;;;;;;10.73;5.70;;;21.80;99.90;;;;;;5053653;28;20263;-62
2023/08/20 06:13:53;;;;;;;10.95;5.45;;;21.80;99.90;;;;;;5053761;28;20233;-62
2023/08/20 06:16:21;;;;;;;7.40;6.18;;;21.80;99.90;;;;;;5053875;28;20205;-62
2023/08/20 06:18:49;;;;;;;9.15;6.35;;;21.90;99.90;;;;;;5053911;28;20208;-62
2023/08/20 06:21:19;;;;;;;10.40;7.10;;;21.90;99.90;;;;;;5062022;28;20318;-62
2023/08/20 06:23:47;;;;;;;9.35;6.95;;;22.00;99.90;;;;;;5073455;28;20312;-59
2023/08/20 06:26:15;;;;;;;6.68;6.05;;;22.00;99.90;;;;;;5073500;28;20285;-58
2023/08/20 06:28:43;;;;;;;7.97;6.47;;;22.10;99.90;;;;;;5073469;28;20232;-60
2023/08/20 06:31:10;;;;;;;9.05;6.75;;;22.10;99.90;;;;;;5073635;28;20236;-60
2023/08/20 06:33:39;;;;;;;8.93;7.05;;;22.20;99.90;;;;;;5073064;28;20303;-59
2023/08/20 06:36:07;;;;;;;8.13;6.97;;;22.30;99.90;;;;;;5073181;28;20274;-60
2023/08/20 06:38:37;;;;;;;7.80;6.95;;;22.40;99.90;;;;;;5073547;28;20205;-60
2023/08/20 06:41:04;;;;;;;7.97;7.18;;;22.50;99.90;;;;;;5073305;28;20215;-60
2023/08/20 06:43:32;;;;;;;11.13;6.68;;;22.60;99.90;;;;;;5073004;28;20271;-60
2023/08/20 06:46:00;;;;;;;10.38;7.25;;;22.70;99.90;;;;;;5073142;28;20336;-60
2023/08/20 06:48:28;;;;;;;11.13;6.88;;;22.80;99.90;;;;;;5073226;28;20210;-60
2023/08/20 06:50:56;;;;;;;16.55;7.68;;;22.90;99.90;;;;;;5073242;28;20638;-59
2023/08/20 06:53:24;;;;;;;10.93;7.57;;;23.00;99.90;;;;;;5072948;28;20274;-59
2023/08/20 06:55:53;;;;;;;11.27;7.40;;;23.10;99.90;;;;;;5072718;28;20244;-58
2023/08/20 06:58:21;;;;;;;9.30;6.95;;;23.20;99.90;;;;;;5073285;28;20312;-60
2023/08/20 07:00:49;;;;;;;12.13;7.70;;;23.30;99.90;;;;;;5073414;28;20237;-60
2023/08/20 07:03:17;;;;;;;9.60;7.60;;;23.40;99.90;;;;;;5072953;28;20220;-59
2023/08/20 07:05:45;;;;;;;11.75;6.95;;;23.50;99.90;;;;;;5067666;28;20278;-59
2023/08/20 07:08:12;;;;;;;12.45;7.80;;;23.70;99.90;;;;;;5056175;28;20734;-59
2023/08/20 07:10:40;;;;;;;10.35;7.45;;;23.80;99.90;;;;;;5052684;28;20253;-58
2023/08/20 07:13:09;;;;;;;11.98;6.85;;;24.00;99.90;;;;;;5053001;28;20282;-59
2023/08/20 07:15:37;;;;;;;11.20;7.38;;;24.10;99.90;;;;;;5052473;28;20229;-60
2023/08/20 07:18:06;;;;;;;11.38;6.35;;;24.20;99.90;;;;;;5052507;28;20209;-59
2023/08/20 07:20:34;;;;;;;12.70;7.07;;;24.30;99.90;;;;;;5054541;28;20209;-60
2023/08/20 07:23:02;;;;;;;9.40;6.80;;;24.20;99.90;;;;;;5072083;28;20254;-60
2023/08/20 07:25:32;;;;;;;11.38;7.10;;;24.20;99.90;;;;;;5072383;28;20251;-60
2023/08/20 07:28:00;;;;;;;7.13;6.38;;;24.20;99.90;;;;;;5072401;28;20294;-60
2023/08/20 07:30:29;;;;;;;10.88;6.97;;;24.30;99.90;;;;;;5072546;28;20676;-60
2023/08/20 07:32:57;;;;;;;8.98;7.10;;;24.30;99.90;;;;;;5071976;28;20639;-59
2023/08/20 07:35:32;;;;;;;11.38;7.15;;;24.40;99.90;;;;;;5071365;28;20224;-60
2023/08/20 07:38:00;;;;;;;10.55;7.18;;;24.40;99.90;;;;;;5072069;28;20745;-59
2023/08/20 07:40:28;;;;;;;14.07;7.40;;;24.50;99.90;;;;;;5072504;28;20204;-60
2023/08/20 07:42:56;;;;;;;8.93;7.57;;;24.60;99.90;;;;;;5071947;28;20206;-60
2023/08/20 07:45:24;;;;;;;8.82;7.82;;;24.70;99.90;;;;;;5070856;28;20674;-59
2023/08/20 07:47:53;;;;;;;8.50;7.70;;;24.70;99.90;;;;;;5071822;28;20235;-58
2023/08/20 07:50:21;;;;;;;10.57;8.30;;;24.80;99.90;;;;;;5071934;28;20215;-60
2023/08/20 07:52:49;;;;;;;9.70;7.95;;;24.90;99.90;;;;;;5071022;28;20278;-60
2023/08/20 07:55:17;;;;;;;8.63;7.35;;;25.00;99.90;;;;;;5051122;28;20287;-59
2023/08/20 07:57:45;;;;;;;10.13;7.68;;;25.10;99.90;;;;;;5052046;28;20205;-60
2023/08/20 08:00:15;;;;;;;8.52;7.18;;;25.20;99.90;;;;;;5051852;28;20616;-60
2023/08/20 08:02:43;;;;;;;9.98;7.38;;;25.30;99.90;;;;;;5051426;28;20297;-59
2023/08/20 08:05:14;;;;;;;12.70;8.52;;;25.30;99.90;;;;;;5051299;28;20233;-60
2023/08/20 08:07:42;;;;;;;11.27;7.85;;;25.40;99.90;;;;;;5051580;28;20244;-61
2023/08/20 08:10:10;;;;;;;10.02;7.65;;;25.40;99.90;;;;;;5051807;28;20204;-62
2023/08/20 08:12:38;;;;;;;11.55;7.68;;;25.50;99.90;;;;;;5049946;28;20205;-62
2023/08/20 08:15:06;;;;;;;11.50;7.68;;;25.60;99.90;;;;;;5050689;28;20666;-61
2023/08/20 08:17:34;;;;;;;13.50;7.60;;;25.60;99.90;;;;;;5051732;28;20296;-62
2023/08/20 08:20:03;;;;;;;11.63;7.25;;;25.70;99.90;;;;;;5051622;28;20209;-62
2023/08/20 08:22:32;;;;;;;9.38;7.75;;;25.80;99.90;;;;;;5051546;28;20217;-61
2023/08/20 08:25:00;;;;;;;8.15;7.35;;;25.80;99.90;;;;;;5051388;28;20312;-62
2023/08/20 08:27:28;;;;;;;7.82;7.13;;;25.90;99.90;;;;;;5051547;28;20213;-62
2023/08/20 08:29:56;;;;;;;10.38;6.57;;;25.90;99.90;;;;;;5051431;28;20267;-63
2023/08/20 08:32:23;;;;;;;7.47;6.78;;;26.00;99.90;;;;;;5066396;28;20708;-62
2023/08/20 08:34:51;;;;;;;9.38;7.10;;;26.10;99.90;;;;;;5062789;28;20212;-61
2023/08/20 08:37:19;;;;;;;7.78;7.07;;;26.20;99.90;;;;;;5071491;28;20236;-62
2023/08/20 08:39:49;;;;;;;7.78;7.28;;;26.20;99.90;;;;;;5071393;28;20208;-62
2023/08/20 08:42:16;;;;;;;9.43;7.05;;;26.40;99.90;;;;;;5071446;28;20252;-61
2023/08/20 08:44:44;;;;;;;8.13;6.28;;;26.50;99.90;;;;;;5071114;28;20240;-61
2023/08/20 08:47:12;;;;;;;7.28;6.57;;;26.70;99.90;;;;;;5071189;28;20296;-61
2023/08/20 08:49:40;;;;;;;9.68;6.90;;;26.80;99.90;;;;;;5071103;28;20234;-62
2023/08/20 08:52:09;;;;;;;7.22;6.57;;;26.90;99.90;;;;;;5071070;28;20676;-62
2023/08/20 08:54:37;;;;;;;10.25;7.38;;;27.00;99.90;;;;;;5070657;28;20224;-61
2023/08/20 08:57:06;;;;;;;8.30;7.40;;;27.10;99.90;;;;;;5073099;28;20689;-62
2023/08/20 08:59:34;;;;;;;10.10;7.53;;;27.20;99.90;;;;;;5074778;28;20236;-61
2023/08/20 09:02:02;;;;;;;10.60;7.32;;;27.40;99.90;;;;;;5074262;28;20269;-61
2023/08/20 09:04:30;;;;;;;7.75;7.00;;;27.50;99.90;;;;;;5074111;28;20601;-62
2023/08/20 09:06:58;;;;;;;8.48;7.05;;;27.50;99.90;;;;;;5074107;28;20208;-62
2023/08/20 09:09:27;;;;;;;8.63;6.28;;;27.60;99.90;;;;;;5074275;28;20303;-62
2023/08/20 09:11:55;;;;;;;6.85;5.95;;;27.70;99.90;;;;;;5072389;28;20679;-62
2023/08/20 09:14:25;;;;;;;11.70;6.25;;;27.70;99.90;;;;;;5066027;28;20263;-62
2023/08/20 09:16:57;;;;;;;7.22;6.53;;;27.80;99.90;;;;;;5062571;28;20251;-62
2023/08/20 09:19:24;;;;;;;9.55;7.00;;;27.90;99.90;;;;;;5055189;28;20668;-63
2023/08/20 09:21:53;;;;;;;8.73;7.03;;;28.10;99.90;;;;;;5066366;28;20262;-62
2023/08/20 09:24:27;;;;;;;9.68;6.25;;;28.20;99.90;;;;;;5066067;28;20278;-62
2023/08/20 09:26:58;;;;;;;7.20;6.10;;;28.30;99.90;;;;;;5074198;28;20227;-64
2023/08/20 09:29:28;;;;;;;8.18;6.28;;;28.40;99.90;;;;;;5069581;28;20729;-60
2023/08/20 09:32:01;;;;;;;9.18;6.32;;;28.50;99.90;;;;;;5068764;28;20307;-64
2023/08/20 09:34:37;;;;;;;6.90;6.07;;;28.60;99.90;;;;;;5065783;28;20369;-60
2023/08/20 09:37:06;;;;;;;6.55;6.05;;;28.80;99.90;;;;;;5074459;28;20215;-60
2023/08/20 09:39:34;;;;;;;6.32;5.82;;;28.90;99.90;;;;;;5074039;28;20295;-62
2023/08/20 09:42:02;;;;;;;6.72;5.90;;;29.00;99.90;;;;;;5074544;28;20299;-62
2023/08/20 09:44:34;;;;;;;8.38;6.03;;;29.20;99.90;;;;;;5072181;28;20224;-65
2023/08/20 09:47:02;;;;;;;7.72;6.05;;;29.30;99.90;;;;;;5074337;28;20244;-64
2023/08/20 09:49:31;;;;;;;10.18;5.50;;;29.40;99.90;;;;;;5074128;28;20200;-64
2023/08/20 09:51:59;;;;;;;6.68;6.13;;;29.60;99.90;;;;;;5074161;28;20688;-65
2023/08/20 09:54:32;;;;;;;6.80;6.00;;;29.70;99.90;;;;;;5073792;28;20711;-65
2023/08/20 09:57:00;;;;;;;8.10;5.68;;;29.90;99.90;;;;;;5073783;28;20235;-64
2023/08/20 09:59:28;;;;;;;8.30;6.63;;;30.10;99.90;;;;;;5073583;28;20237;-64
2023/08/20 10:01:58;;;;;;;7.68;5.55;;;30.30;99.90;;;;;;5057282;28;20237;-64
2023/08/20 10:04:26;;;;;;;6.28;5.70;;;30.50;99.90;;;;;;5053494;28;20324;-64
2023/08/20 10:06:54;;;;;;;7.25;5.38;;;30.60;99.90;;;;;;5052466;28;20205;-64
2023/08/20 10:09:22;;;;;;;6.35;5.72;;;30.80;99.90;;;;;;5054096;28;20683;-63
2023/08/20 10:11:50;;;;;;;5.20;4.70;;;31.00;99.90;;;;;;5053830;28;20300;-63
2023/08/20 10:14:18;;;;;;;5.80;5.30;;;31.20;99.90;;;;;;5053944;28;20283;-64
2023/08/20 10:16:46;;;;;;;6.38;5.55;;;31.20;99.90;;;;;;5053858;28;20648;-64
2023/08/20 10:19:17;;;;;;;6.18;5.60;;;31.30;99.90;;;;;;5053783;28;20217;-63
2023/08/20 10:21:45;;;;;;;5.65;5.15;;;31.50;99.90;;;;;;5065701;28;20253;-63
2023/08/20 10:24:18;;;;;;;5.97;5.47;;;31.60;99.90;;;;;;5073110;28;20224;-64
2023/08/20 10:26:46;;;;;;;6.28;5.30;;;31.80;99.90;;;;;;5073205;28;20260;-63
2023/08/20 10:29:36;;;;;;;11.60;5.78;;;31.90;99.90;;;;;;5073757;28;20208;-63
2023/08/20 10:32:06;;;;;;;5.72;5.28;;;32.20;99.90;;;;;;5073571;28;20667;-63
2023/08/20 10:34:37;;;;;;;7.45;5.18;;;32.20;99.90;;;;;;5073438;28;20311;-64
2023/08/20 10:37:10;;;;;;;6.78;5.57;;;32.10;99.90;;;;;;5073811;28;20204;-64
2023/08/20 10:39:37;;;;;;;7.65;5.70;;;32.20;99.90;;;;;;5073485;28;20232;-64
2023/08/20 10:42:10;;;;;;;5.18;4.78;;;32.50;99.90;;;;;;5073665;28;20205;-64
2023/08/20 10:45:00;;;;;;;7.72;5.40;;;32.80;99.90;;;;;;5073097;28;20312;-64
2023/08/20 10:47:37;;;;;;;6.18;5.68;;;33.00;99.90;;;;;;5073727;28;20270;-64
2023/08/20 10:50:08;;;;;;;6.60;5.28;;;33.30;99.90;;;;;;5073691;28;20204;-63
2023/08/20 10:52:40;;;;;;;6.60;5.45;;;33.60;99.90;;;;;;5073111;28;20258;-64
2023/08/20 10:55:08;;;;;;;6.20;5.10;;;33.80;99.90;;;;;;5072913;28;20224;-64
2023/08/20 10:57:36;;;;;;;5.75;4.97;;;33.90;99.90;;;;;;5072949;28;20250;-63
2023/08/20 11:00:11;;;;;;;6.03;5.00;;;34.10;99.90;;;;;;5073431;28;20209;-63
2023/08/20 11:02:39;;;;;;;5.35;4.85;;;34.20;99.90;;;;;;5072911;28;20250;-64
2023/08/20 11:05:17;;;;;;;5.07;4.68;;;34.30;99.90;;;;;;5072611;28;20255;-63
2023/08/20 11:07:46;;;;;;;5.20;4.68;;;34.40;99.90;;;;;;5073096;28;20236;-63
2023/08/20 11:10:14;;;;;;;5.40;4.90;;;34.30;99.90;;;;;;5073041;28;20646;-64
2023/08/20 11:12:42;;;;;;;5.80;5.00;;;34.30;99.90;;;;;;5072942;28;20235;-63
2023/08/20 11:15:11;;;;;;;6.40;4.60;;;34.50;99.90;;;;;;5072739;28;20271;-63
2023/08/20 11:17:43;;;;;;;4.70;4.20;;;34.70;99.90;;;;;;5072793;28;20265;-64
2023/08/20 11:20:12;;;;;;;8.95;4.28;;;35.00;99.90;;;;;;5072996;28;20258;-64
2023/08/20 11:22:41;;;;;;;4.53;4.22;;;35.20;99.90;;;;;;5052903;28;20228;-64
2023/08/20 11:25:11;;;;;;;5.00;4.40;;;35.20;99.90;;;;;;5052326;28;20607;-64
2023/08/20 11:27:42;;;;;;;5.18;4.75;;;34.90;99.90;;;;;;5052550;28;20240;-64
2023/08/20 11:30:12;;;;;;;6.15;4.65;;;35.10;99.90;;;;;;5052566;28;20245;-64
2023/08/20 11:32:39;;;;;;;6.97;4.78;;;35.40;99.90;;;;;;5052434;28;20205;-65
2023/08/20 11:35:08;;;;;;;7.57;4.32;;;35.60;99.90;;;;;;5052049;28;20236;-64
2023/08/20 11:37:36;;;;;;;4.90;4.30;;;35.70;99.90;;;;;;5052517;28;20237;-64
2023/08/20 11:40:09;;;;;;;4.75;4.28;;;35.90;99.90;;;;;;5052356;28;20220;-64
2023/08/20 11:42:37;;;;;;;5.20;4.70;;;36.20;99.90;;;;;;5052346;28;20241;-64
2023/08/20 11:45:07;;;;;;;6.43;4.72;;;36.40;99.90;;;;;;5052257;28;20229;-64
2023/08/20 11:47:39;;;;;;;6.55;4.68;;;36.70;99.90;;;;;;5052042;28;20265;-65
2023/08/20 11:50:08;;;;;;;4.88;4.38;;;36.90;99.90;;;;;;5052341;28;20209;-64
2023/08/20 11:52:36;;;;;;;4.40;4.00;;;37.00;99.90;;;;;;5052293;28;20260;-64
2023/08/20 11:55:06;;;;;;;5.28;4.88;;;36.90;99.90;;;;;;5051862;28;20261;-64
2023/08/20 11:57:35;;;;;;;4.35;4.05;;;36.90;99.90;;;;;;5052179;28;20212;-64
2023/08/20 12:00:08;;;;;;;4.50;4.15;;;37.00;99.90;;;;;;5051997;28;20208;-64
2023/08/20 12:02:36;;;;;;;4.78;4.28;;;37.00;99.90;;;;;;5052189;28;20205;-64
2023/08/20 12:05:07;;;;;;;5.05;4.65;;;37.20;99.90;;;;;;5051554;28;20269;-64
2023/08/20 12:07:36;;;;;;;10.85;4.75;;;37.40;99.90;;;;;;5058554;28;20220;-65
2023/08/20 12:10:22;;;;;;;6.20;4.90;;;37.60;99.90;;;;;;5060254;28;20673;-62
2023/08/20 12:12:51;;;;;;;4.55;4.15;;;37.70;99.90;;;;;;5052365;28;20208;-64
2023/08/20 12:15:19;;;;;;;8.98;4.30;;;37.70;99.90;;;;;;5050400;28;20777;-64
2023/08/20 12:17:58;;;;;;;4.53;4.13;;;37.90;99.90;;;;;;5050942;28;20288;-64
2023/08/20 12:20:28;;;;;;;5.45;5.00;;;38.00;99.90;;;;;;5052486;28;20251;-63
2023/08/20 12:22:56;;;;;;;6.85;4.72;;;38.10;99.90;;;;;;5062284;28;20660;-64
2023/08/20 12:25:24;;;;;;;6.18;4.50;;;38.10;99.90;;;;;;5062256;28;20244;-64
2023/08/20 12:27:53;;;;;;;4.57;4.15;;;38.10;99.90;;;;;;5061787;28;20312;-64
2023/08/20 12:30:21;;;;;;;4.97;4.57;;;38.10;98.30;;;;;;5061028;28;20232;-63
2023/08/20 12:32:49;;;;;;;8.45;4.82;;;38.20;97.90;;;;;;5061355;28;20288;-63
2023/08/20 12:35:16;;;;;;;5.32;4.55;;;38.30;96.70;;;;;;5055704;28;20312;-64
2023/08/20 12:37:44;;;;;;;5.93;4.68;;;38.30;96.40;;;;;;5061925;28;20251;-63
2023/08/20 12:40:13;;;;;;;4.80;4.50;;;38.30;96.00;;;;;;5060407;28;20205;-64
2023/08/20 12:42:42;;;;;;;4.90;4.40;;;38.30;95.90;;;;;;5061544;28;20280;-63
2023/08/20 12:45:13;;;;;;;9.25;4.55;;;38.30;97.30;;;;;;5059424;28;20231;-64
2023/08/20 12:47:41;;;;;;;6.35;4.43;;;38.30;97.90;;;;;;5059758;28;20225;-63
2023/08/20 12:50:10;;;;;;;5.32;4.85;;;38.40;98.60;;;;;;5060606;28;20204;-64
2023/08/20 12:52:38;;;;;;;6.15;4.85;;;38.60;98.40;;;;;;5059741;28;20203;-64